createdAt,value
2018-06-30T00:00:01.627Z,44.30
2018-06-30T00:01:01.621Z,44.00
2018-06-30T00:02:01.610Z,43.90
2018-06-30T00:03:01.605Z,44.90
2018-06-30T00:04:01.594Z,44.20
2018-06-30T00:05:01.588Z,44.20
2018-06-30T00:06:01.580Z,45.60
2018-06-30T00:07:01.572Z,42.90
2018-06-30T00:08:01.566Z,43.60
2018-06-30T00:09:01.555Z,44.40
2018-06-30T00:10:01.550Z,43.60
2018-06-30T00:11:01.539Z,44.10
2018-06-30T00:12:01.531Z,45.70
2018-06-30T00:13:01.525Z,48.70
2018-06-30T00:14:01.514Z,48.20
2018-06-30T00:15:01.509Z,49.00
2018-06-30T00:16:01.499Z,49.60
2018-06-30T00:17:01.493Z,49.10
2018-06-30T00:18:01.484Z,48.80
2018-06-30T00:19:01.475Z,49.10
2018-06-30T00:20:01.467Z,48.00
2018-06-30T00:21:01.463Z,49.10
2018-06-30T00:22:01.451Z,50.60
2018-06-30T00:23:01.443Z,51.20
2018-06-30T00:24:01.435Z,52.10
2018-06-30T00:25:01.427Z,54.40
2018-06-30T00:26:01.418Z,52.30
2018-06-30T00:27:01.412Z,53.30
2018-06-30T00:28:01.402Z,53.80
2018-06-30T00:29:01.395Z,53.80
2018-06-30T00:30:01.385Z,53.10
2018-06-30T00:31:01.379Z,53.30
2018-06-30T00:32:01.371Z,55.50
2018-06-30T00:33:01.362Z,57.40
2018-06-30T00:34:01.352Z,58.20
2018-06-30T00:35:01.344Z,58.90
2018-06-30T00:36:01.336Z,60.40
2018-06-30T00:37:01.330Z,59.60
2018-06-30T00:38:01.470Z,60.30
2018-06-30T00:39:01.313Z,59.70
2018-06-30T00:40:01.303Z,60.80
2018-06-30T00:41:01.295Z,62.50
2018-06-30T00:42:01.286Z,61.70
2018-06-30T00:43:01.277Z,62.40
2018-06-30T00:44:01.271Z,62.30
2018-06-30T00:45:01.261Z,65.80
2018-06-30T00:46:01.252Z,65.10
2018-06-30T00:47:01.248Z,63.40
2018-06-30T00:48:01.236Z,65.20
2018-06-30T00:49:01.228Z,65.20
2018-06-30T00:50:01.222Z,64.30
2018-06-30T00:51:01.211Z,60.30
2018-06-30T00:52:01.203Z,59.50
2018-06-30T00:53:01.198Z,59.60
2018-06-30T00:54:01.184Z,56.70
2018-06-30T00:55:01.177Z,60.50
2018-06-30T00:56:01.169Z,59.70
2018-06-30T00:57:01.166Z,59.40
2018-06-30T00:58:01.151Z,59.80
2018-06-30T00:59:01.173Z,60.40
2018-06-30T01:00:01.139Z,59.40
2018-06-30T01:01:01.126Z,59.00
2018-06-30T01:02:01.117Z,58.60
2018-06-30T01:03:01.109Z,58.70
2018-06-30T01:04:01.101Z,59.50
2018-06-30T01:05:01.092Z,60.00
2018-06-30T01:06:01.083Z,61.00
2018-06-30T01:07:01.075Z,62.00
2018-06-30T01:08:01.067Z,60.00
2018-06-30T01:09:01.058Z,63.10
2018-06-30T01:10:01.048Z,61.50
2018-06-30T01:11:01.041Z,63.60
2018-06-30T01:12:01.035Z,62.80
2018-06-30T01:13:01.023Z,61.70
2018-06-30T01:14:01.018Z,60.50
2018-06-30T01:15:01.006Z,61.40
2018-06-30T01:16:01.000Z,61.00
2018-06-30T01:17:00.988Z,61.20
2018-06-30T01:18:00.979Z,58.70
2018-06-30T01:19:00.971Z,62.80
2018-06-30T01:20:00.963Z,62.40
2018-06-30T01:21:00.954Z,63.50
2018-06-30T01:22:00.945Z,62.90
2018-06-30T01:23:00.936Z,65.70
2018-06-30T01:24:00.932Z,67.50
2018-06-30T01:25:00.923Z,71.00
2018-06-30T01:26:00.910Z,71.90
2018-06-30T01:27:00.902Z,73.80
2018-06-30T01:28:00.894Z,71.70
2018-06-30T01:29:00.886Z,74.90
2018-06-30T01:30:00.878Z,76.20
2018-06-30T01:31:00.871Z,78.50
2018-06-30T01:32:00.859Z,77.60
2018-06-30T01:33:00.851Z,78.00
2018-06-30T01:34:00.845Z,77.70
2018-06-30T01:35:00.833Z,77.90
2018-06-30T01:36:00.829Z,80.10
2018-06-30T01:37:00.816Z,77.40
2018-06-30T01:38:00.806Z,78.10
2018-06-30T01:39:00.798Z,77.10
2018-06-30T01:40:00.789Z,80.70
2018-06-30T01:41:00.781Z,80.80
2018-06-30T01:42:00.771Z,81.40
2018-06-30T01:43:00.765Z,81.60
2018-06-30T01:44:00.754Z,81.10
2018-06-30T01:45:00.752Z,81.90
2018-06-30T01:46:00.737Z,79.80
2018-06-30T01:47:00.728Z,80.80
2018-06-30T01:48:00.720Z,78.80
2018-06-30T01:49:00.711Z,80.40
2018-06-30T01:50:00.701Z,78.20
2018-06-30T01:51:00.693Z,79.00
2018-06-30T01:52:00.686Z,80.40
2018-06-30T01:53:00.677Z,84.10
2018-06-30T01:54:00.666Z,84.00
2018-06-30T01:55:00.659Z,82.30
2018-06-30T01:56:00.649Z,81.50
2018-06-30T01:57:00.643Z,80.10
2018-06-30T01:58:00.632Z,78.60
2018-06-30T01:59:00.623Z,78.80
2018-06-30T02:00:00.614Z,79.90
2018-06-30T02:01:00.607Z,79.40
2018-06-30T02:02:00.601Z,80.40
2018-06-30T02:03:00.588Z,80.40
2018-06-30T02:04:00.578Z,76.80
2018-06-30T02:05:00.570Z,76.90
2018-06-30T02:06:00.560Z,76.60
2018-06-30T02:07:00.552Z,75.40
2018-06-30T02:08:00.545Z,75.60
2018-06-30T02:09:00.534Z,76.40
2018-06-30T02:10:00.525Z,73.80
2018-06-30T02:11:00.516Z,73.50
2018-06-30T02:12:00.507Z,72.70
2018-06-30T02:13:00.498Z,73.60
2018-06-30T02:14:00.489Z,74.90
2018-06-30T02:15:00.479Z,70.80
2018-06-30T02:16:00.471Z,70.80
2018-06-30T02:17:00.462Z,74.20
2018-06-30T02:18:00.452Z,74.50
2018-06-30T02:19:00.445Z,73.50
2018-06-30T02:20:00.439Z,76.00
2018-06-30T02:21:00.426Z,79.80
2018-06-30T02:22:00.417Z,81.20
2018-06-30T02:23:00.407Z,82.50
2018-06-30T02:24:00.399Z,83.60
2018-06-30T02:25:00.390Z,85.20
2018-06-30T02:26:00.380Z,87.10
2018-06-30T02:27:00.372Z,85.70
2018-06-30T02:28:00.363Z,86.20
2018-06-30T02:29:00.355Z,84.90
2018-06-30T02:30:00.344Z,82.60
2018-06-30T02:31:00.336Z,81.90
2018-06-30T02:32:00.326Z,81.40
2018-06-30T02:33:00.319Z,81.10
2018-06-30T02:34:00.307Z,78.00
2018-06-30T02:35:00.299Z,73.80
2018-06-30T02:36:00.297Z,78.40
2018-06-30T02:37:00.289Z,75.60
2018-06-30T02:38:00.271Z,75.80
2018-06-30T02:39:00.295Z,75.90
2018-06-30T02:40:00.256Z,75.90
2018-06-30T02:41:00.244Z,76.70
2018-06-30T02:42:00.234Z,77.20
2018-06-30T02:43:00.225Z,83.70
2018-06-30T02:44:00.216Z,82.80
2018-06-30T02:45:00.207Z,84.00
2018-06-30T02:46:00.226Z,85.10
2018-06-30T02:47:00.188Z,84.80
2018-06-30T02:48:00.182Z,85.20
2018-06-30T02:49:00.171Z,87.90
2018-06-30T02:50:00.161Z,88.70
2018-06-30T02:51:00.152Z,88.70
2018-06-30T02:52:00.149Z,88.20
2018-06-30T02:53:00.134Z,88.00
2018-06-30T02:54:00.124Z,87.90
2018-06-30T02:55:00.115Z,86.30
2018-06-30T02:56:00.107Z,89.20
2018-06-30T02:57:00.098Z,86.00
2018-06-30T02:58:00.088Z,84.10
2018-06-30T02:59:00.079Z,84.20
2018-06-30T03:00:00.078Z,82.20
2018-06-30T03:01:00.061Z,85.10
2018-06-30T03:02:00.053Z,84.40
2018-06-30T03:03:00.043Z,86.00
2018-06-30T03:04:00.039Z,84.90
2018-06-30T03:05:00.050Z,87.40
2018-06-30T03:06:00.014Z,84.90
2018-06-30T03:07:00.008Z,86.60
2018-06-30T03:08:00.002Z,84.70
2018-06-30T03:08:59.987Z,85.30
2018-06-30T03:09:59.977Z,87.50
2018-06-30T03:10:59.971Z,88.30
2018-06-30T03:11:59.959Z,88.20
2018-06-30T03:12:59.958Z,86.10
2018-06-30T03:13:59.940Z,85.80
2018-06-30T03:14:59.930Z,87.30
2018-06-30T03:15:59.922Z,84.40
2018-06-30T03:16:59.913Z,83.00
2018-06-30T03:17:59.902Z,81.40
2018-06-30T03:18:59.893Z,81.10
2018-06-30T03:19:59.885Z,82.50
2018-06-30T03:20:59.875Z,80.10
2018-06-30T03:21:59.865Z,80.20
2018-06-30T03:22:59.857Z,80.00
2018-06-30T03:23:59.847Z,79.80
2018-06-30T03:24:59.837Z,79.90
2018-06-30T03:25:59.832Z,78.80
2018-06-30T03:26:59.818Z,81.00
2018-06-30T03:27:59.808Z,76.10
2018-06-30T03:28:59.799Z,77.80
2018-06-30T03:29:59.789Z,78.20
2018-06-30T03:30:59.780Z,77.50
2018-06-30T03:31:59.771Z,77.70
2018-06-30T03:32:59.763Z,78.70
2018-06-30T03:33:59.754Z,76.40
2018-06-30T03:34:59.742Z,78.20
2018-06-30T03:35:59.733Z,76.60
2018-06-30T03:36:59.724Z,77.50
2018-06-30T03:37:59.864Z,77.80
2018-06-30T03:38:59.705Z,75.30
2018-06-30T03:39:59.695Z,76.00
2018-06-30T03:40:59.686Z,73.80
2018-06-30T03:41:59.676Z,75.10
2018-06-30T03:42:59.666Z,70.70
2018-06-30T03:43:59.657Z,68.80
2018-06-30T03:44:59.648Z,68.20
2018-06-30T03:45:59.638Z,65.70
2018-06-30T03:46:59.641Z,62.90
2018-06-30T03:47:59.619Z,63.40
2018-06-30T03:48:59.610Z,64.00
2018-06-30T03:49:59.599Z,62.40
2018-06-30T03:50:59.595Z,61.00
2018-06-30T03:51:59.581Z,62.50
2018-06-30T03:52:59.571Z,62.80
2018-06-30T03:53:59.562Z,62.40
2018-06-30T03:54:59.553Z,60.60
2018-06-30T03:55:59.540Z,59.90
2018-06-30T03:56:59.529Z,61.50
2018-06-30T03:57:59.519Z,59.90
2018-06-30T03:58:59.509Z,59.30
2018-06-30T03:59:59.501Z,58.80
2018-06-30T04:00:59.492Z,58.90
2018-06-30T04:01:59.481Z,57.90
2018-06-30T04:02:59.471Z,58.60
2018-06-30T04:03:59.462Z,56.40
2018-06-30T04:04:59.452Z,56.80
2018-06-30T04:05:59.443Z,56.30
2018-06-30T04:06:59.434Z,55.00
2018-06-30T04:07:59.624Z,53.80
2018-06-30T04:08:59.415Z,52.20
2018-06-30T04:09:59.402Z,52.50
2018-06-30T04:10:59.395Z,51.90
2018-06-30T04:11:59.385Z,53.90
2018-06-30T04:12:59.376Z,52.80
2018-06-30T04:13:59.364Z,53.60
2018-06-30T04:14:59.357Z,50.20
2018-06-30T04:15:59.347Z,47.00
2018-06-30T04:16:59.338Z,48.80
2018-06-30T04:17:59.327Z,47.40
2018-06-30T04:18:59.317Z,46.50
2018-06-30T04:19:59.312Z,43.50
2018-06-30T04:20:59.299Z,42.20
2018-06-30T04:21:59.299Z,42.20
2018-06-30T04:22:59.279Z,42.40
2018-06-30T04:23:59.268Z,40.30
2018-06-30T04:24:59.258Z,37.10
2018-06-30T04:25:59.248Z,33.80
2018-06-30T04:26:59.239Z,33.20
2018-06-30T04:27:59.231Z,34.70
2018-06-30T04:28:59.220Z,32.60
2018-06-30T04:29:59.211Z,31.40
2018-06-30T04:30:59.200Z,30.40
2018-06-30T04:31:59.196Z,30.80
2018-06-30T04:32:59.182Z,30.40
2018-06-30T04:33:59.171Z,29.90
2018-06-30T04:34:59.162Z,30.90
2018-06-30T04:35:59.154Z,28.80
2018-06-30T04:36:59.145Z,29.90
2018-06-30T04:37:59.135Z,29.20
2018-06-30T04:38:59.123Z,28.20
2018-06-30T04:39:59.115Z,27.70
2018-06-30T04:40:59.106Z,27.40
2018-06-30T04:41:59.096Z,26.30
2018-06-30T04:42:59.087Z,26.50
2018-06-30T04:43:59.277Z,25.80
2018-06-30T04:44:59.067Z,25.20
2018-06-30T04:45:59.062Z,26.70
2018-06-30T04:46:59.051Z,25.10
2018-06-30T04:47:59.041Z,24.90
2018-06-30T04:48:59.032Z,24.70
2018-06-30T04:49:59.021Z,24.40
2018-06-30T04:50:59.067Z,24.70
2018-06-30T04:51:59.003Z,23.70
2018-06-30T04:52:58.994Z,24.30
2018-06-30T04:53:58.985Z,22.70
2018-06-30T04:54:58.974Z,23.40
2018-06-30T04:55:58.965Z,24.00
2018-06-30T04:56:58.955Z,23.60
2018-06-30T04:57:58.944Z,22.90
2018-06-30T04:58:58.935Z,21.80
2018-06-30T04:59:58.926Z,22.20
2018-06-30T05:00:58.917Z,21.70
2018-06-30T05:01:58.906Z,21.90
2018-06-30T05:02:58.897Z,22.10
2018-06-30T05:03:58.888Z,21.30
2018-06-30T05:04:58.878Z,21.90
2018-06-30T05:05:58.868Z,22.10
2018-06-30T05:06:58.859Z,22.40
2018-06-30T05:07:58.849Z,22.20
2018-06-30T05:08:58.840Z,20.90
2018-06-30T05:09:58.830Z,20.70
2018-06-30T05:10:58.822Z,20.00
2018-06-30T05:11:58.811Z,20.00
2018-06-30T05:12:58.879Z,20.60
2018-06-30T05:13:58.794Z,20.10
2018-06-30T05:14:58.784Z,20.00
2018-06-30T05:15:58.775Z,21.30
2018-06-30T05:16:58.763Z,20.50
2018-06-30T05:17:58.753Z,20.00
2018-06-30T05:18:58.744Z,19.40
2018-06-30T05:19:58.735Z,19.90
2018-06-30T05:20:58.727Z,19.70
2018-06-30T05:21:58.717Z,19.90
2018-06-30T05:22:58.705Z,19.60
2018-06-30T05:23:58.701Z,20.80
2018-06-30T05:24:58.687Z,19.50
2018-06-30T05:25:58.697Z,20.70
2018-06-30T05:26:58.668Z,20.80
2018-06-30T05:27:58.658Z,20.60
2018-06-30T05:28:58.650Z,19.60
2018-06-30T05:29:58.638Z,20.90
2018-06-30T05:30:58.629Z,21.50
2018-06-30T05:31:58.821Z,20.60
2018-06-30T05:32:58.611Z,19.90
2018-06-30T05:33:58.600Z,20.40
2018-06-30T05:34:58.594Z,21.70
2018-06-30T05:35:58.581Z,21.90
2018-06-30T05:36:58.571Z,22.40
2018-06-30T05:37:58.561Z,22.60
2018-06-30T05:38:58.551Z,23.80
2018-06-30T05:39:58.544Z,22.80
2018-06-30T05:40:58.523Z,23.30
2018-06-30T05:41:58.515Z,24.10
2018-06-30T05:42:58.504Z,25.40
2018-06-30T05:43:58.494Z,26.40
2018-06-30T05:44:58.484Z,26.00
2018-06-30T05:45:58.473Z,25.60
2018-06-30T05:46:58.464Z,25.90
2018-06-30T05:47:58.454Z,25.60
2018-06-30T05:48:58.446Z,26.00
2018-06-30T05:49:58.436Z,26.50
2018-06-30T05:50:58.425Z,25.50
2018-06-30T05:51:58.420Z,25.10
2018-06-30T05:52:58.406Z,26.10
2018-06-30T05:53:58.395Z,26.10
2018-06-30T05:54:58.386Z,25.90
2018-06-30T05:55:58.376Z,26.10
2018-06-30T05:56:58.367Z,25.60
2018-06-30T05:57:58.357Z,24.70
2018-06-30T05:58:58.346Z,26.40
2018-06-30T05:59:58.339Z,25.10
2018-06-30T06:00:58.330Z,26.00
2018-06-30T06:01:58.316Z,26.20
2018-06-30T06:02:58.307Z,26.10
2018-06-30T06:03:58.297Z,25.90
2018-06-30T06:04:58.288Z,25.20
2018-06-30T06:05:58.279Z,25.20
2018-06-30T06:06:58.267Z,26.10
2018-06-30T06:07:58.408Z,26.70
2018-06-30T06:08:58.248Z,25.80
2018-06-30T06:09:58.292Z,26.00
2018-06-30T06:10:58.230Z,26.40
2018-06-30T06:11:58.218Z,26.80
2018-06-30T06:12:58.209Z,26.20
2018-06-30T06:13:58.197Z,26.30
2018-06-30T06:14:58.189Z,26.60
2018-06-30T06:15:58.178Z,25.90
2018-06-30T06:16:58.169Z,25.70
2018-06-30T06:17:58.158Z,26.50
2018-06-30T06:18:58.147Z,25.40
2018-06-30T06:19:58.139Z,26.10
2018-06-30T06:20:58.128Z,25.80
2018-06-30T06:21:58.118Z,25.70
2018-06-30T06:22:58.108Z,24.40
2018-06-30T06:23:58.098Z,25.40
2018-06-30T06:24:58.090Z,25.20
2018-06-30T06:25:58.138Z,24.30
2018-06-30T06:26:58.067Z,24.50
2018-06-30T06:27:58.060Z,25.40
2018-06-30T06:28:58.049Z,25.60
2018-06-30T06:29:58.038Z,25.10
2018-06-30T06:30:58.029Z,25.10
2018-06-30T06:31:58.018Z,24.80
2018-06-30T06:32:58.008Z,24.80
2018-06-30T06:33:57.997Z,25.90
2018-06-30T06:34:57.987Z,24.90
2018-06-30T06:35:57.977Z,24.20
2018-06-30T06:36:57.977Z,24.00
2018-06-30T06:37:58.107Z,24.50
2018-06-30T06:38:57.952Z,25.20
2018-06-30T06:39:57.938Z,25.20
2018-06-30T06:40:57.930Z,23.60
2018-06-30T06:41:57.918Z,23.90
2018-06-30T06:42:57.907Z,24.70
2018-06-30T06:43:57.899Z,24.70
2018-06-30T06:44:57.886Z,24.50
2018-06-30T06:45:57.875Z,23.20
2018-06-30T06:46:57.866Z,24.80
2018-06-30T06:47:57.856Z,23.70
2018-06-30T06:48:57.846Z,25.40
2018-06-30T06:49:57.835Z,25.10
2018-06-30T06:50:57.855Z,24.70
2018-06-30T06:51:57.817Z,24.40
2018-06-30T06:52:57.807Z,23.50
2018-06-30T06:53:57.795Z,23.70
2018-06-30T06:54:57.787Z,25.50
2018-06-30T06:55:57.775Z,25.40
2018-06-30T06:56:57.766Z,24.10
2018-06-30T06:57:57.754Z,23.50
2018-06-30T06:58:57.745Z,23.30
2018-06-30T06:59:57.735Z,22.40
2018-06-30T07:00:57.725Z,23.30
2018-06-30T07:01:57.714Z,23.30
2018-06-30T07:02:57.705Z,21.70
2018-06-30T07:03:57.694Z,23.90
2018-06-30T07:04:57.684Z,22.50
2018-06-30T07:05:57.674Z,22.50
2018-06-30T07:06:57.664Z,23.20
2018-06-30T07:07:57.655Z,21.60
2018-06-30T07:08:57.645Z,22.60
2018-06-30T07:09:57.633Z,21.90
2018-06-30T07:10:57.624Z,22.50
2018-06-30T07:11:57.614Z,21.30
2018-06-30T07:12:57.604Z,22.70
2018-06-30T07:13:57.593Z,21.10
2018-06-30T07:14:57.583Z,21.60
2018-06-30T07:15:57.573Z,22.10
2018-06-30T07:16:57.563Z,21.80
2018-06-30T07:17:57.552Z,22.20
2018-06-30T07:18:57.542Z,22.80
2018-06-30T07:19:57.532Z,22.00
2018-06-30T07:20:57.523Z,20.50
2018-06-30T07:21:57.514Z,20.90
2018-06-30T07:22:57.502Z,21.40
2018-06-30T07:23:57.492Z,21.30
2018-06-30T07:24:57.481Z,20.50
2018-06-30T07:25:57.471Z,21.40
2018-06-30T07:26:57.461Z,20.90
2018-06-30T07:27:57.451Z,21.70
2018-06-30T07:28:57.443Z,21.60
2018-06-30T07:29:57.430Z,22.60
2018-06-30T07:30:57.420Z,22.70
2018-06-30T07:31:57.412Z,21.90
2018-06-30T07:32:57.399Z,22.70
2018-06-30T07:33:57.389Z,22.60
2018-06-30T07:34:57.378Z,22.00
2018-06-30T07:35:57.371Z,22.80
2018-06-30T07:36:57.358Z,22.30
2018-06-30T07:37:57.348Z,24.10
2018-06-30T07:38:57.337Z,24.50
2018-06-30T07:39:57.328Z,24.30
2018-06-30T07:40:57.317Z,25.50
2018-06-30T07:41:57.307Z,24.90
2018-06-30T07:42:57.298Z,25.60
2018-06-30T07:43:57.286Z,25.10
2018-06-30T07:44:57.277Z,26.30
2018-06-30T07:45:57.265Z,26.50
2018-06-30T07:46:57.254Z,26.70
2018-06-30T07:47:57.244Z,25.50
2018-06-30T07:48:57.434Z,26.90
2018-06-30T07:49:57.225Z,27.00
2018-06-30T07:50:57.221Z,28.00
2018-06-30T07:51:57.205Z,27.80
2018-06-30T07:52:57.192Z,29.60
2018-06-30T07:53:57.181Z,29.50
2018-06-30T07:54:57.171Z,30.50
2018-06-30T07:55:57.161Z,31.80
2018-06-30T07:56:57.151Z,30.30
2018-06-30T07:57:57.139Z,30.70
2018-06-30T07:58:57.129Z,32.50
2018-06-30T07:59:57.121Z,32.30
2018-06-30T08:00:57.108Z,31.80
2018-06-30T08:01:57.124Z,32.20
2018-06-30T08:02:57.087Z,31.20
2018-06-30T08:03:57.076Z,31.90
2018-06-30T08:04:57.066Z,33.40
2018-06-30T08:05:57.055Z,33.60
2018-06-30T08:06:57.245Z,31.50
2018-06-30T08:07:57.037Z,32.30
2018-06-30T08:08:57.024Z,31.00
2018-06-30T08:09:57.014Z,31.30
2018-06-30T08:10:57.004Z,31.70
2018-06-30T08:11:56.995Z,31.80
2018-06-30T08:12:57.217Z,32.20
2018-06-30T08:13:56.977Z,30.70
2018-06-30T08:14:56.960Z,31.10
2018-06-30T08:15:56.953Z,30.70
2018-06-30T08:16:56.940Z,30.60
2018-06-30T08:17:56.928Z,30.70
2018-06-30T08:18:56.917Z,31.10
2018-06-30T08:19:56.907Z,30.20
2018-06-30T08:20:56.897Z,30.90
2018-06-30T08:21:56.887Z,31.60
2018-06-30T08:22:56.875Z,30.50
2018-06-30T08:23:56.865Z,30.80
2018-06-30T08:24:56.855Z,30.80
2018-06-30T08:25:56.843Z,32.50
2018-06-30T08:26:56.832Z,29.70
2018-06-30T08:27:56.826Z,29.80
2018-06-30T08:28:56.812Z,29.60
2018-06-30T08:29:56.801Z,28.90
2018-06-30T08:30:56.790Z,30.10
2018-06-30T08:31:56.779Z,31.00
2018-06-30T08:32:56.769Z,31.80
2018-06-30T08:33:56.758Z,30.80
2018-06-30T08:34:56.747Z,28.70
2018-06-30T08:35:56.737Z,27.20
2018-06-30T08:36:56.726Z,26.90
2018-06-30T08:37:56.715Z,26.80
2018-06-30T08:38:56.704Z,26.40
2018-06-30T08:39:56.694Z,28.40
2018-06-30T08:40:56.684Z,28.50
2018-06-30T08:41:56.672Z,27.10
2018-06-30T08:42:56.664Z,28.40
2018-06-30T08:43:56.651Z,28.00
2018-06-30T08:44:56.641Z,28.20
2018-06-30T08:45:56.629Z,29.70
2018-06-30T08:46:56.619Z,33.10
2018-06-30T08:47:56.610Z,34.10
2018-06-30T08:48:56.597Z,35.20
2018-06-30T08:49:56.585Z,34.70
2018-06-30T08:50:56.576Z,36.30
2018-06-30T08:51:56.565Z,33.70
2018-06-30T08:52:56.555Z,34.00
2018-06-30T08:53:56.543Z,35.70
2018-06-30T08:54:56.532Z,34.80
2018-06-30T08:55:56.522Z,34.40
2018-06-30T08:56:56.525Z,33.90
2018-06-30T08:57:56.499Z,34.00
2018-06-30T08:58:56.488Z,35.70
2018-06-30T08:59:56.479Z,34.50
2018-06-30T09:00:56.468Z,34.00
2018-06-30T09:01:56.456Z,34.10
2018-06-30T09:02:56.446Z,34.50
2018-06-30T09:03:56.435Z,34.60
2018-06-30T09:04:56.425Z,33.30
2018-06-30T09:05:56.413Z,33.30
2018-06-30T09:06:56.403Z,35.10
2018-06-30T09:07:56.394Z,32.50
2018-06-30T09:08:56.383Z,33.60
2018-06-30T09:09:56.370Z,34.10
2018-06-30T09:10:56.362Z,34.00
2018-06-30T09:11:56.389Z,33.30
2018-06-30T09:12:56.538Z,34.00
2018-06-30T09:13:56.327Z,32.80
2018-06-30T09:14:56.318Z,32.70
2018-06-30T09:15:56.306Z,34.00
2018-06-30T09:16:56.296Z,31.20
2018-06-30T09:17:56.288Z,32.10
2018-06-30T09:18:56.273Z,32.10
2018-06-30T09:19:56.263Z,31.00
2018-06-30T09:20:56.254Z,31.10
2018-06-30T09:21:56.241Z,28.50
2018-06-30T09:22:56.231Z,27.70
2018-06-30T09:23:56.220Z,29.60
2018-06-30T09:24:56.211Z,29.50
2018-06-30T09:25:56.199Z,29.20
2018-06-30T09:26:56.192Z,28.20
2018-06-30T09:27:56.178Z,26.80
2018-06-30T09:28:56.168Z,26.30
2018-06-30T09:29:56.157Z,25.70
2018-06-30T09:30:56.146Z,26.90
2018-06-30T09:31:56.137Z,25.30
2018-06-30T09:32:56.124Z,25.70
2018-06-30T09:33:56.113Z,26.80
2018-06-30T09:34:56.103Z,26.10
2018-06-30T09:35:56.093Z,24.70
2018-06-30T09:36:56.086Z,24.50
2018-06-30T09:37:56.131Z,25.10
2018-06-30T09:38:56.061Z,25.40
2018-06-30T09:39:56.051Z,25.80
2018-06-30T09:40:56.046Z,24.60
2018-06-30T09:41:56.030Z,23.60
2018-06-30T09:42:56.018Z,24.10
2018-06-30T09:43:56.008Z,24.90
2018-06-30T09:44:55.999Z,23.70
2018-06-30T09:45:55.985Z,24.50
2018-06-30T09:46:55.975Z,23.40
2018-06-30T09:47:55.966Z,24.60
2018-06-30T09:48:55.954Z,25.00
2018-06-30T09:49:55.945Z,25.50
2018-06-30T09:50:55.939Z,25.40
2018-06-30T09:51:55.923Z,24.70
2018-06-30T09:52:55.913Z,24.90
2018-06-30T09:53:55.902Z,25.70
2018-06-30T09:54:56.093Z,24.50
2018-06-30T09:55:55.881Z,24.90
2018-06-30T09:56:55.871Z,22.90
2018-06-30T09:57:55.859Z,23.30
2018-06-30T09:58:55.848Z,24.00
2018-06-30T09:59:55.838Z,23.10
2018-06-30T10:00:55.828Z,22.80
2018-06-30T10:01:55.817Z,23.40
2018-06-30T10:02:55.807Z,22.40
2018-06-30T10:03:55.796Z,22.30
2018-06-30T10:04:55.789Z,22.10
2018-06-30T10:05:55.775Z,23.00
2018-06-30T10:06:55.794Z,23.70
2018-06-30T10:07:55.755Z,21.10
2018-06-30T10:08:55.744Z,23.00
2018-06-30T10:09:55.733Z,22.90
2018-06-30T10:10:55.723Z,26.00
2018-06-30T10:11:55.714Z,24.80
2018-06-30T10:12:55.702Z,24.80
2018-06-30T10:13:55.691Z,23.80
2018-06-30T10:14:55.682Z,24.60
2018-06-30T10:15:55.670Z,24.00
2018-06-30T10:16:55.661Z,25.10
2018-06-30T10:17:55.649Z,25.20
2018-06-30T10:18:55.839Z,25.70
2018-06-30T10:19:55.631Z,23.60
2018-06-30T10:20:55.649Z,24.40
2018-06-30T10:21:55.608Z,23.80
2018-06-30T10:22:55.598Z,23.70
2018-06-30T10:23:55.588Z,24.60
2018-06-30T10:24:55.578Z,25.00
2018-06-30T10:25:55.566Z,23.10
2018-06-30T10:26:55.556Z,21.80
2018-06-30T10:27:55.548Z,20.40
2018-06-30T10:28:55.538Z,22.50
2018-06-30T10:29:55.526Z,21.80
2018-06-30T10:30:55.519Z,24.00
2018-06-30T10:31:55.505Z,22.60
2018-06-30T10:32:55.495Z,22.50
2018-06-30T10:33:55.484Z,22.40
2018-06-30T10:34:55.474Z,20.90
2018-06-30T10:35:55.464Z,21.80
2018-06-30T10:36:55.454Z,21.70
2018-06-30T10:37:55.443Z,21.30
2018-06-30T10:38:55.434Z,21.20
2018-06-30T10:39:55.423Z,22.30
2018-06-30T10:40:55.414Z,20.40
2018-06-30T10:41:55.403Z,20.20
2018-06-30T10:42:55.392Z,21.60
2018-06-30T10:43:55.382Z,21.50
2018-06-30T10:44:55.373Z,21.60
2018-06-30T10:45:55.362Z,21.90
2018-06-30T10:46:55.351Z,20.80
2018-06-30T10:47:55.341Z,21.00
2018-06-30T10:48:55.334Z,20.60
2018-06-30T10:49:55.321Z,21.00
2018-06-30T10:50:55.311Z,21.90
2018-06-30T10:51:55.302Z,21.20
2018-06-30T10:52:55.292Z,21.10
2018-06-30T10:53:55.282Z,22.10
2018-06-30T10:54:55.272Z,21.10
2018-06-30T10:55:55.262Z,22.40
2018-06-30T10:56:55.251Z,23.30
2018-06-30T10:57:55.241Z,21.10
2018-06-30T10:58:55.231Z,23.00
2018-06-30T10:59:55.223Z,23.20
2018-06-30T11:00:55.211Z,22.40
2018-06-30T11:01:55.200Z,23.20
2018-06-30T11:02:55.191Z,23.90
2018-06-30T11:03:55.223Z,23.70
2018-06-30T11:04:55.171Z,23.90
2018-06-30T11:05:55.221Z,23.80
2018-06-30T11:06:55.150Z,23.20
2018-06-30T11:07:55.140Z,24.80
2018-06-30T11:08:55.133Z,25.90
2018-06-30T11:09:55.119Z,27.00
2018-06-30T11:10:55.120Z,27.30
2018-06-30T11:11:55.098Z,27.40
2018-06-30T11:12:55.289Z,27.10
2018-06-30T11:13:55.079Z,28.00
2018-06-30T11:14:55.068Z,27.40
2018-06-30T11:15:55.058Z,28.00
2018-06-30T11:16:55.048Z,28.50
2018-06-30T11:17:55.038Z,28.40
2018-06-30T11:18:55.226Z,28.00
2018-06-30T11:19:55.017Z,30.20
2018-06-30T11:20:55.008Z,29.90
2018-06-30T11:21:54.996Z,30.20
2018-06-30T11:22:54.987Z,30.60
2018-06-30T11:23:54.976Z,30.30
2018-06-30T11:24:54.965Z,29.60
2018-06-30T11:25:54.955Z,30.60
2018-06-30T11:26:54.946Z,29.90
2018-06-30T11:27:54.935Z,30.70
2018-06-30T11:28:54.925Z,29.00
2018-06-30T11:29:54.915Z,30.00
2018-06-30T11:30:54.904Z,30.20
2018-06-30T11:31:54.894Z,28.80
2018-06-30T11:32:54.891Z,30.30
2018-06-30T11:33:54.874Z,29.60
2018-06-30T11:34:54.864Z,28.90
2018-06-30T11:35:54.854Z,28.70
2018-06-30T11:36:55.048Z,28.60
2018-06-30T11:37:54.834Z,27.60
2018-06-30T11:38:54.825Z,27.90
2018-06-30T11:39:54.814Z,28.80
2018-06-30T11:40:54.878Z,27.90
2018-06-30T11:41:54.795Z,28.10
2018-06-30T11:42:54.985Z,31.20
2018-06-30T11:43:54.776Z,30.20
2018-06-30T11:44:54.766Z,28.50
2018-06-30T11:45:54.756Z,27.30
2018-06-30T11:46:54.747Z,27.70
2018-06-30T11:47:54.741Z,27.40
2018-06-30T11:48:54.729Z,27.10
2018-06-30T11:49:54.718Z,27.50
2018-06-30T11:50:54.710Z,27.10
2018-06-30T11:51:54.702Z,28.60
2018-06-30T11:52:54.692Z,140.10
2018-06-30T11:53:54.684Z,191.20
2018-06-30T11:54:54.673Z,64.60
2018-06-30T11:55:54.664Z,50.10
2018-06-30T11:56:54.656Z,46.40
2018-06-30T11:57:54.647Z,31.60
2018-06-30T11:58:54.638Z,28.40
2018-06-30T11:59:54.628Z,26.80
2018-06-30T12:00:54.619Z,25.80
2018-06-30T12:01:54.617Z,25.20
2018-06-30T12:02:54.601Z,23.90
2018-06-30T12:03:54.593Z,24.20
2018-06-30T12:04:54.585Z,23.60
2018-06-30T12:05:54.576Z,24.70
2018-06-30T12:06:54.567Z,24.00
2018-06-30T12:07:54.558Z,22.40
2018-06-30T12:08:54.551Z,23.80
2018-06-30T12:09:54.541Z,24.20
2018-06-30T12:10:54.532Z,23.60
2018-06-30T12:11:54.524Z,24.20
2018-06-30T12:12:54.518Z,23.10
2018-06-30T12:13:54.507Z,24.20
2018-06-30T12:14:54.500Z,24.60
2018-06-30T12:15:54.492Z,24.50
2018-06-30T12:16:54.483Z,23.50
2018-06-30T12:17:54.474Z,23.60
2018-06-30T12:18:54.465Z,23.50
2018-06-30T12:19:54.458Z,23.90
2018-06-30T12:20:54.450Z,22.00
2018-06-30T12:21:54.452Z,24.40
2018-06-30T12:22:54.439Z,23.70
2018-06-30T12:23:54.426Z,23.70
2018-06-30T12:24:54.421Z,22.90
2018-06-30T12:25:54.411Z,23.20
2018-06-30T12:26:54.402Z,21.80
2018-06-30T12:27:54.394Z,21.90
2018-06-30T12:28:54.386Z,23.10
2018-06-30T12:29:54.378Z,23.00
2018-06-30T12:30:54.370Z,21.90
2018-06-30T12:31:54.371Z,22.80
2018-06-30T12:32:54.355Z,22.60
2018-06-30T12:33:54.346Z,23.10
2018-06-30T12:34:54.339Z,21.80
2018-06-30T12:35:54.330Z,20.70
2018-06-30T12:36:54.342Z,22.30
2018-06-30T12:37:54.319Z,21.90
2018-06-30T12:38:54.318Z,21.30
2018-06-30T12:39:54.300Z,20.40
2018-06-30T12:40:54.293Z,21.40
2018-06-30T12:41:54.285Z,20.70
2018-06-30T12:42:54.477Z,21.30
2018-06-30T12:43:54.269Z,20.80
2018-06-30T12:44:54.293Z,21.40
2018-06-30T12:45:54.254Z,20.90
2018-06-30T12:46:54.247Z,21.80
2018-06-30T12:47:54.239Z,21.40
2018-06-30T12:48:54.432Z,20.00
2018-06-30T12:49:54.223Z,19.50
2018-06-30T12:50:54.217Z,20.30
2018-06-30T12:51:54.210Z,20.00